Time;durP1;ratioP1;P1;durP2;ratioP2;P2;SDS_P1;SDS_P2;PMS_P1;PMS_P2;Temp;Humidity;BMP_temperature;BMP_pressure;BME280_temperature;BME280_humidity;BME280_pressure;Samples;Min_cycle;Max_cycle;Signal;HPM_P1;HPM_P2
2022/10/03 00:00:12;;;;;;;12.68;6.53;;;;;;;11.36;100.00;96495.75;6176522;23;20012;-60
2022/10/03 00:03:28;;;;;;;6.65;5.95;;;;;;;11.39;100.00;96487.56;6176545;23;20056;-60
2022/10/03 00:06:08;;;;;;;10.03;9.13;;;;;;;11.39;100.00;96496.34;6178027;23;20008;-70
2022/10/03 00:08:36;;;;;;;9.70;8.68;;;;;;;11.40;100.00;96483.97;6176358;23;20025;-65
2022/10/03 00:11:20;;;;;;;8.77;7.88;;;;;;;11.39;100.00;96487.56;6176525;23;20343;-68
2022/10/03 00:13:57;;;;;;;7.07;6.43;;;;;;;11.40;100.00;96486.59;6176045;22;20112;-68
2022/10/03 00:16:40;;;;;;;8.13;6.80;;;;;;;11.41;100.00;96483.84;6177399;23;20047;-68
2022/10/03 00:19:24;;;;;;;8.30;5.20;;;;;;;11.42;100.00;96492.59;6176217;23;20107;-69
2022/10/03 00:21:54;;;;;;;11.70;8.70;;;;;;;11.40;100.00;96484.81;6176344;22;20061;-68
2022/10/03 00:24:34;;;;;;;7.10;6.40;;;;;;;11.39;100.00;96487.56;6176581;23;19997;-68
2022/10/03 00:27:06;;;;;;;7.55;6.85;;;;;;;11.38;100.00;96483.25;6176223;23;20076;-62
2022/10/03 00:29:45;;;;;;;8.45;6.65;;;;;;;11.39;100.00;96482.31;6176311;23;20029;-69
2022/10/03 00:32:20;;;;;;;11.45;6.47;;;;;;;11.38;100.00;96483.25;6176679;23;20015;-69
2022/10/03 00:35:05;;;;;;;6.43;5.97;;;;;;;11.41;100.00;96485.63;6175103;23;20001;-68
2022/10/03 00:38:04;;;;;;;10.13;6.43;;;;;;;11.41;100.00;96483.84;6176970;23;20005;-68
2022/10/03 00:41:05;;;;;;;8.55;7.22;;;;;;;11.43;100.00;96492.47;6176742;23;20001;-69
2022/10/03 00:43:55;;;;;;;11.55;5.78;;;;;;;11.46;100.00;96492.22;6175996;22;20447;-68
2022/10/03 00:46:48;;;;;;;6.88;4.05;;;;;;;11.46;100.00;96497.50;6176452;23;20005;-68
2022/10/03 00:49:34;;;;;;;6.43;4.20;;;;;;;11.49;100.00;96496.38;6176135;23;20355;-60
2022/10/03 00:52:12;;;;;;;5.80;5.38;;;;;;;11.47;100.00;96493.03;6176599;23;20001;-60
2022/10/03 00:54:47;;;;;;;7.85;5.60;;;;;;;11.45;100.00;96487.06;6176328;23;20005;-60
2022/10/03 00:57:45;;;;;;;7.70;5.63;;;;;;;11.45;100.00;96494.97;6176635;23;20008;-60
2022/10/03 01:00:48;;;;;;;25.63;17.13;;;;;;;11.45;100.00;96494.97;6176619;23;20427;-60
2022/10/03 01:03:34;;;;;;;19.58;14.55;;;;;;;11.45;100.00;96500.25;6176995;23;20355;-60
2022/10/03 01:06:06;;;;;;;18.45;13.85;;;;;;;11.45;100.00;96500.25;6175544;23;20005;-69
2022/10/03 01:08:31;;;;;;;17.33;12.27;;;;;;;11.42;100.00;96490.81;6176018;22;20005;-58
2022/10/03 01:11:05;;;;;;;12.40;10.45;;;;;;;11.37;100.00;96492.13;6176017;23;20045;-56
2022/10/03 01:13:45;;;;;;;16.10;10.68;;;;;;;11.38;100.00;96485.91;6176304;23;19997;-58
2022/10/03 01:16:14;;;;;;;12.18;8.18;;;;;;;11.39;100.00;96490.22;6176819;23;20035;-58
2022/10/03 01:19:26;;;;;;;9.93;6.18;;;;;;;11.37;100.00;96482.41;6176204;23;20044;-58
2022/10/03 01:22:13;;;;;;;10.68;5.97;;;;;;;11.36;100.00;96480.75;6110523;23;20013;-57
2022/10/03 01:25:06;;;;;;;8.88;5.75;;;;;;;11.37;100.00;96471.03;6176169;22;20381;-63
2022/10/03 01:30:42;;;;;;;5.10;4.55;;;;;;;11.26;100.00;96466.66;6176006;23;20044;-65
2022/10/03 01:33:21;;;;;;;4.35;3.60;;;;;;;11.21;100.00;96468.84;6175872;23;20028;-65
2022/10/03 01:35:52;;;;;;;10.55;4.40;;;;;;;11.17;100.00;96466.47;6176087;23;20004;-65
2022/10/03 01:38:37;;;;;;;4.55;2.53;;;;;;;11.16;100.00;96477.97;6176406;22;20450;-65
2022/10/03 01:41:11;;;;;;;8.95;2.53;;;;;;;11.15;100.00;96476.28;6176195;23;19997;-65
2022/10/03 01:44:39;;;;;;;2.70;2.50;;;;;;;11.12;100.00;96473.09;6175636;23;20008;-63
2022/10/03 01:47:04;;;;;;;6.15;2.00;;;;;;;11.04;100.00;96469.25;6177719;23;20129;-65
2022/10/03 01:49:40;;;;;;;5.18;2.00;;;;;;;11.02;100.00;96462.47;6177543;23;20032;-65
2022/10/03 01:52:19;;;;;;;;;;;;;;;10.98;100.00;96458.41;6177183;23;20451;-65
2022/10/03 01:55:12;;;;;;;4.40;2.10;;;;;;;10.95;100.00;96459.47;6176079;23;19915;-65
2022/10/03 01:57:44;;;;;;;4.75;2.40;;;;;;;10.89;100.00;96463.44;6174458;23;20073;-66
2022/10/03 02:00:16;;;;;;;6.82;2.05;;;;;;;10.84;100.00;96462.16;6175001;23;20068;-65
2022/10/03 02:03:12;;;;;;;1.83;1.67;;;;;;;10.82;100.00;96466.69;6175657;23;20324;-69
2022/10/03 02:05:48;;;;;;;4.10;2.00;;;;;;;10.85;100.00;96466.47;6176417;23;20102;-65
2022/10/03 02:08:16;;;;;;;4.85;2.47;;;;;;;10.82;100.00;96459.66;6175974;23;20004;-65
2022/10/03 02:11:00;;;;;;;2.63;2.53;;;;;;;10.79;100.00;96457.25;6176121;23;20036;-65
2022/10/03 02:13:44;;;;;;;4.60;2.03;;;;;;;10.77;100.00;96467.09;6176225;22;20005;-65
2022/10/03 02:16:43;;;;;;;3.80;1.90;;;;;;;10.74;100.00;96459.44;6175560;23;20009;-65
2022/10/03 02:19:23;;;;;;;3.10;2.10;;;;;;;10.74;100.00;96454.19;6148099;22;20060;-65
2022/10/03 02:21:52;;;;;;;2.85;1.90;;;;;;;10.73;100.00;96455.13;6146051;23;20081;-62
2022/10/03 02:24:31;;;;;;;2.03;1.90;;;;;;;10.69;100.00;96453.69;6146255;23;20005;-61
2022/10/03 02:27:24;;;;;;;2.42;2.13;;;;;;;10.66;100.00;96459.22;6146880;23;20475;-61
2022/10/03 02:30:08;;;;;;;7.40;2.35;;;;;;;10.62;100.00;96460.41;6145550;23;20006;-61
2022/10/03 02:33:07;;;;;;;6.78;2.13;;;;;;;10.61;100.00;96456.97;6146021;23;20081;-61
2022/10/03 02:35:54;;;;;;;5.43;2.40;;;;;;;10.58;100.00;96452.78;6145928;23;20032;-61
2022/10/03 02:38:56;;;;;;;7.63;1.77;;;;;;;10.58;100.00;96458.03;6146145;23;20002;-61
2022/10/03 02:41:43;;;;;;;2.10;1.90;;;;;;;10.59;100.00;96453.59;6146375;23;20067;-68
2022/10/03 02:44:34;;;;;;;3.85;2.15;;;;;;;10.59;100.00;96454.44;6145835;23;20005;-65
2022/10/03 02:47:17;;;;;;;6.93;1.63;;;;;;;10.64;100.00;96453.22;6174408;23;20077;-65
2022/10/03 02:50:07;;;;;;;2.03;1.70;;;;;;;10.70;100.00;96450.09;6146037;23;20435;-65
2022/10/03 02:53:00;;;;;;;5.75;1.60;;;;;;;10.75;100.00;96455.84;6145864;23;20708;-65
2022/10/03 02:55:26;;;;;;;3.38;1.75;;;;;;;10.75;100.00;96451.41;6145584;23;20004;-65
2022/10/03 02:58:13;;;;;;;1.70;1.60;;;;;;;10.77;100.00;96453.94;6147038;23;20503;-65
2022/10/03 03:01:15;;;;;;;2.53;1.50;;;;;;;10.76;100.00;96452.25;6147212;23;20001;-60
2022/10/03 03:04:13;;;;;;;1.70;1.60;;;;;;;10.74;100.00;96457.63;6147819;23;20076;-60
2022/10/03 03:06:47;;;;;;;2.28;1.50;;;;;;;10.76;100.00;96452.25;6147465;23;19997;-60
2022/10/03 03:09:33;;;;;;;1.52;1.42;;;;;;;10.79;100.00;96443.25;6147455;23;20078;-60
2022/10/03 03:12:25;;;;;;;;;;;;;;;10.83;100.00;96450.78;6121640;23;20411;-60
2022/10/03 03:15:12;;;;;;;2.05;1.40;;;;;;;10.87;100.00;96443.47;6148543;23;19905;-60
2022/10/03 03:18:14;;;;;;;1.85;1.75;;;;;;;10.86;100.00;96447.91;6157743;23;20020;-59
2022/10/03 03:21:07;;;;;;;4.10;1.67;;;;;;;10.85;100.00;96455.94;6177221;23;19993;-62
2022/10/03 03:23:45;;;;;;;3.35;1.70;;;;;;;10.80;100.00;96458.09;6177266;23;20028;-65
2022/10/03 03:26:49;;;;;;;3.60;1.38;;;;;;;10.74;100.00;96454.19;6177090;23;20001;-65
2022/10/03 03:29:35;;;;;;;1.92;1.63;;;;;;;10.69;100.00;96448.41;6178756;23;20013;-65
2022/10/03 03:32:10;;;;;;;1.92;1.70;;;;;;;10.62;100.00;96450.75;6178947;23;20005;-65
2022/10/03 03:34:48;;;;;;;6.68;1.77;;;;;;;10.55;100.00;96446.91;6177919;23;20032;-65
2022/10/03 03:37:24;;;;;;;3.92;1.65;;;;;;;10.66;100.00;96446.91;6177338;22;20350;-65
2022/10/03 03:40:12;;;;;;;2.90;1.60;;;;;;;10.52;100.00;96452.41;6176880;23;20331;-68
2022/10/03 03:42:41;;;;;;;1.88;1.77;;;;;;;10.44;100.00;96448.63;6177131;23;20028;-60
2022/10/03 03:45:13;;;;;;;4.28;2.10;;;;;;;10.40;100.00;96443.69;6177739;23;20005;-60
2022/10/03 03:47:53;;;;;;;2.40;1.70;;;;;;;10.35;100.00;96444.03;6176968;23;20001;-60
2022/10/03 03:50:43;;;;;;;3.42;2.03;;;;;;;10.34;100.00;96441.53;6150535;23;20416;-60
2022/10/03 03:53:24;;;;;;;5.03;1.90;;;;;;;10.35;100.00;96440.59;6177118;23;20352;-60
2022/10/03 03:56:06;;;;;;;2.67;1.85;;;;;;;10.30;100.00;96439.16;6177367;23;20005;-60
2022/10/03 03:58:39;;;;;;;2.20;2.10;;;;;;;10.27;100.00;96436.75;6176919;23;20130;-63
2022/10/03 04:01:27;;;;;;;4.50;1.88;;;;;;;10.27;100.00;96436.75;6176879;23;20004;-63
2022/10/03 04:04:12;;;;;;;2.53;1.95;;;;;;;10.25;100.00;96441.28;6177848;23;20008;-62
2022/10/03 04:07:02;;;;;;;6.30;2.00;;;;;;;10.23;100.00;96434.50;6176545;23;20336;-62
2022/10/03 04:09:52;;;;;;;6.30;2.90;;;;;;;10.21;100.00;96437.25;6176604;23;20005;-62
2022/10/03 04:12:39;;;;;;;6.07;2.40;;;;;;;10.20;100.00;96432.94;6177084;23;20020;-61
2022/10/03 04:15:16;;;;;;;4.10;2.58;;;;;;;10.16;100.00;96432.34;6177084;23;20029;-62
2022/10/03 04:21:03;;;;;;;11.68;2.45;;;;;;;10.17;100.00;96431.41;6176906;23;20054;-69
2022/10/03 04:23:49;;;;;;;2.03;1.90;;;;;;;10.19;100.00;96426.00;6176454;23;20095;-68
2022/10/03 04:26:39;;;;;;;2.00;1.90;;;;;;;10.20;100.00;96417.16;6174483;23;20004;-69
2022/10/03 04:29:39;;;;;;;2.53;2.30;;;;;;;10.20;100.00;96414.50;6175635;23;20008;-68
2022/10/03 04:32:35;;;;;;;2.45;2.00;;;;;;;10.19;100.00;96407.59;6175641;23;20333;-69
2022/10/03 04:35:03;;;;;;;;;;;;;;;10.17;100.00;96404.25;6177545;23;20039;-69
2022/10/03 04:37:51;;;;;;;2.83;2.13;;;;;;;10.20;100.00;96405.81;6177264;23;20326;-58
2022/10/03 04:40:49;;;;;;;5.82;2.20;;;;;;;10.20;100.00;96403.16;6176643;23;20538;-64
2022/10/03 04:43:40;;;;;;;8.30;2.13;;;;;;;10.17;100.00;96406.88;6177014;23;20001;-65
2022/10/03 04:46:38;;;;;;;2.03;1.90;;;;;;;10.13;100.00;96400.19;6176999;23;20024;-65
2022/10/03 04:49:27;;;;;;;2.55;2.08;;;;;;;10.11;100.00;96400.28;6176141;23;20001;-65
2022/10/03 04:52:01;;;;;;;3.47;2.78;;;;;;;10.07;100.00;96398.03;6176272;23;20028;-65
2022/10/03 04:54:51;;;;;;;2.58;2.40;;;;;;;10.02;100.00;96401.84;6176867;23;20004;-65
2022/10/03 04:57:34;;;;;;;8.02;3.40;;;;;;;9.96;100.00;96388.38;6177017;23;20375;-65
2022/10/03 05:00:23;;;;;;;4.82;2.80;;;;;;;9.94;100.00;96390.25;6176846;23;20374;-62
2022/10/03 05:03:06;;;;;;;2.92;2.38;;;;;;;9.90;100.00;96387.06;6176908;23;20054;-62
2022/10/03 05:05:57;;;;;;;3.33;2.65;;;;;;;9.86;100.00;96394.34;6177335;23;20001;-62
2022/10/03 05:08:51;;;;;;;2.42;2.22;;;;;;;9.86;100.00;96401.41;6176531;23;20067;-62
2022/10/03 05:11:17;;;;;;;2.50;2.30;;;;;;;9.84;100.00;96396.25;6176499;23;20013;-62
2022/10/03 05:14:09;;;;;;;2.20;2.10;;;;;;;9.86;100.00;96396.16;6176852;23;20013;-62
2022/10/03 05:16:35;;;;;;;4.55;2.53;;;;;;;9.87;100.00;96389.94;6176282;23;19996;-68
2022/10/03 05:19:37;;;;;;;3.42;2.50;;;;;;;9.92;100.00;96395.66;6173710;23;20061;-60
2022/10/03 05:22:02;;;;;;;6.80;2.15;;;;;;;9.96;100.00;96399.72;6176768;22;20001;-60
2022/10/03 05:24:59;;;;;;;3.25;2.30;;;;;;;10.00;100.00;96389.78;6176483;23;20012;-60
2022/10/03 05:27:50;;;;;;;5.60;2.97;;;;;;;10.02;100.00;96390.50;6175881;23;20485;-60
2022/10/03 05:30:34;;;;;;;3.13;2.72;;;;;;;10.01;100.00;96394.91;6175824;23;20066;-60
2022/10/03 05:33:12;;;;;;;7.07;2.53;;;;;;;9.99;100.00;96391.56;6176474;22;20001;-60
2022/10/03 05:36:06;;;;;;;4.10;2.40;;;;;;;10.01;100.00;96391.47;6176622;23;19997;-69
2022/10/03 05:38:56;;;;;;;8.35;2.42;;;;;;;10.03;100.00;96394.81;6176434;23;20439;-58
2022/10/03 05:41:36;;;;;;;2.40;2.30;;;;;;;9.95;100.00;96394.59;6172446;23;20001;-58
2022/10/03 05:44:20;;;;;;;3.10;2.90;;;;;;;9.92;100.00;96394.81;6172887;23;20044;-58
2022/10/03 05:46:58;;;;;;;2.97;2.83;;;;;;;9.88;100.00;96395.06;6176445;23;20017;-57
2022/10/03 05:49:47;;;;;;;2.97;2.78;;;;;;;9.83;100.00;96397.22;6173472;23;20455;-58
2022/10/03 05:52:24;;;;;;;3.60;3.28;;;;;;;9.79;100.00;96377.38;6172673;23;19997;-57
2022/10/03 05:55:21;;;;;;;8.50;3.22;;;;;;;9.79;100.00;96389.66;6148913;22;20008;-65
2022/10/03 05:57:57;;;;;;;;;;;;;;;9.72;100.00;96378.78;6174316;23;20025;-64
2022/10/03 06:00:44;;;;;;;3.25;3.05;;;;;;;9.69;100.00;96387.78;6172285;22;19904;-65
2022/10/03 06:03:23;;;;;;;3.72;3.42;;;;;;;9.66;100.00;96395.91;6143040;22;20354;-64
2022/10/03 06:05:57;;;;;;;4.45;3.47;;;;;;;9.62;100.00;96391.84;6173978;23;19997;-65
2022/10/03 06:08:39;;;;;;;9.60;3.55;;;;;;;9.59;100.00;96400.78;6146643;23;20016;-65
2022/10/03 06:11:33;;;;;;;4.63;2.95;;;;;;;9.61;100.00;96400.66;6173344;23;20012;-65
2022/10/03 06:14:34;;;;;;;3.25;2.67;;;;;;;9.62;100.00;96394.47;6173758;23;20004;-63
2022/10/03 06:17:38;;;;;;;4.30;3.60;;;;;;;9.58;100.00;96404.38;6174709;23;19997;-68
2022/10/03 06:20:22;;;;;;;7.05;3.70;;;;;;;9.56;100.00;96403.66;6174934;23;20004;-69
2022/10/03 06:22:56;;;;;;;3.80;3.60;;;;;;;9.56;100.00;96408.91;6174044;23;20005;-69
2022/10/03 06:25:24;;;;;;;4.47;4.17;;;;;;;9.55;100.00;96409.88;6175437;23;20021;-68
2022/10/03 06:28:23;;;;;;;4.28;3.97;;;;;;;9.56;100.00;96410.69;6174510;23;20243;-69
2022/10/03 06:31:12;;;;;;;7.18;3.50;;;;;;;9.59;100.00;96413.09;6174544;23;20005;-68
2022/10/03 06:33:56;;;;;;;7.05;3.72;;;;;;;9.59;100.00;96418.34;6150153;22;20351;-61
2022/10/03 06:36:40;;;;;;;5.00;3.80;;;;;;;9.54;100.00;96415.25;6175621;23;20012;-68
2022/10/03 06:39:39;;;;;;;4.97;4.43;;;;;;;9.55;100.00;96412.50;6174841;23;20005;-68
2022/10/03 06:42:26;;;;;;;10.38;4.35;;;;;;;9.55;100.00;96422.16;6174879;23;20005;-69
2022/10/03 06:45:16;;;;;;;4.93;4.53;;;;;;;9.62;100.00;96422.53;6174660;23;20080;-69
2022/10/03 06:47:50;;;;;;;6.28;4.47;;;;;;;9.66;100.00;96421.34;6174522;23;20366;-69
2022/10/03 06:50:21;;;;;;;4.32;4.03;;;;;;;9.66;100.00;96423.97;6174282;23;20483;-69
2022/10/03 06:52:52;;;;;;;3.97;3.67;;;;;;;9.65;100.00;96428.41;6175905;23;20005;-61
2022/10/03 06:55:20;;;;;;;4.13;3.88;;;;;;;9.66;100.00;96423.97;6175724;23;20001;-69
2022/10/03 06:58:12;;;;;;;4.28;3.97;;;;;;;9.67;100.00;96438.78;6176403;23;20051;-69
2022/10/03 07:00:56;;;;;;;4.68;4.28;;;;;;;9.71;100.00;96434.97;6176422;23;19997;-69
2022/10/03 07:03:54;;;;;;;5.75;4.80;;;;;;;9.76;100.00;96443.34;6176352;23;20024;-69
2022/10/03 07:06:20;;;;;;;9.30;5.50;;;;;;;9.76;100.00;96438.09;6176188;23;20004;-68
2022/10/03 07:09:13;;;;;;;10.95;5.53;;;;;;;9.72;100.00;96445.38;6176274;23;20009;-69
2022/10/03 07:12:05;;;;;;;6.63;6.13;;;;;;;9.70;100.00;96444.66;6176391;23;20005;-63
2022/10/03 07:14:48;;;;;;;5.57;5.10;;;;;;;9.67;100.00;96444.91;6176172;23;20078;-64
2022/10/03 07:17:39;;;;;;;5.68;5.28;;;;;;;9.66;100.00;96448.47;6176228;23;20041;-64
2022/10/03 07:20:33;;;;;;;7.30;5.03;;;;;;;9.73;100.00;96449.69;6175952;23;20439;-64
2022/10/03 07:23:17;;;;;;;4.93;4.40;;;;;;;9.82;100.00;96449.91;6175923;23;20393;-64
2022/10/03 07:26:11;;;;;;;28.13;20.25;;;;;;;10.00;100.00;96450.31;6176010;23;20352;-64
2022/10/03 07:28:57;;;;;;;27.30;18.95;;;;;;;10.14;100.00;96460.56;6176090;23;20550;-64
2022/10/03 07:31:49;;;;;;;27.88;18.95;;;;;;;10.35;100.00;96477.44;6176193;23;20001;-69
2022/10/03 07:34:51;;;;;;;9.70;8.52;;;;;;;10.40;100.00;96480.53;6176451;23;20069;-66
2022/10/03 07:40:37;;;;;;;16.20;14.38;;;;;;;10.37;100.00;96481.59;6176086;23;20079;-66
2022/10/03 07:43:20;;;;;;;9.43;8.45;;;;;;;10.39;100.00;96489.38;6176008;23;20062;-66
2022/10/03 07:46:03;;;;;;;7.15;6.50;;;;;;;10.43;100.00;96481.16;6176006;23;20026;-66
2022/10/03 07:48:50;;;;;;;6.57;5.97;;;;;;;10.47;100.00;96484.38;6176365;23;20008;-66
2022/10/03 07:51:36;;;;;;;5.47;4.95;;;;;;;10.45;100.00;96483.66;6175961;23;20001;-64
2022/10/03 07:54:05;;;;;;;5.45;4.95;;;;;;;10.47;100.00;96487.00;6176189;23;20008;-64
2022/10/03 07:56:39;;;;;;;4.68;4.28;;;;;;;10.47;100.00;96487.00;6176078;23;20054;-64
2022/10/03 07:59:29;;;;;;;5.13;4.72;;;;;;;10.50;100.00;96480.66;6176256;23;20013;-64
2022/10/03 08:02:38;;;;;;;5.20;4.63;;;;;;;10.50;100.00;96492.06;6175922;23;20024;-64
2022/10/03 08:05:25;;;;;;;5.15;4.32;;;;;;;10.54;100.00;96493.47;6176980;22;20008;-64
2022/10/03 08:08:12;;;;;;;6.00;3.55;;;;;;;10.70;100.00;96486.97;6175874;23;20043;-64
2022/10/03 08:11:15;;;;;;;7.93;7.13;;;;;;;10.87;100.00;96494.34;6175925;23;20443;-64
2022/10/03 08:13:59;;;;;;;7.57;4.68;;;;;;;11.06;100.00;96484.13;6175851;23;20005;-63
2022/10/03 08:16:33;;;;;;;3.08;2.72;;;;;;;11.23;100.00;96474.84;6175928;23;20032;-63
2022/10/03 08:19:16;;;;;;;6.10;2.22;;;;;;;11.43;100.00;96471.38;6175854;23;20040;-63
2022/10/03 08:22:12;;;;;;;2.60;2.50;;;;;;;11.59;100.00;96475.34;6176523;23;20111;-63
2022/10/03 08:24:59;;;;;;;1.65;1.65;;;;;;;11.84;100.00;96474.13;6175944;23;20001;-63
2022/10/03 08:27:36;;;;;;;2.45;2.28;;;;;;;12.13;100.00;96467.34;6175839;23;20067;-64
2022/10/03 08:30:14;;;;;;;5.18;1.90;;;;;;;12.32;100.00;96474.50;6175910;23;20013;-63
2022/10/03 08:33:04;;;;;;;12.75;7.50;;;;;;;12.64;100.00;96462.06;6149419;22;20012;-64
2022/10/03 08:36:08;;;;;;;7.57;4.68;;;;;;;12.83;100.00;96461.28;6175846;23;20850;-64
2022/10/03 08:38:49;;;;;;;6.68;2.80;;;;;;;13.08;100.00;96467.00;6175659;23;20499;-64
2022/10/03 08:41:48;;;;;;;3.88;2.45;;;;;;;13.24;100.00;96466.44;6176312;23;19997;-64
2022/10/03 08:44:55;;;;;;;2.38;2.20;;;;;;;13.30;100.00;96469.38;6176133;23;20447;-64
2022/10/03 08:47:26;;;;;;;2.50;2.17;;;;;;;13.22;100.00;96469.22;6177249;23;20059;-59
2022/10/03 08:50:14;;;;;;;4.75;2.00;;;;;;;13.15;100.00;96468.13;6177583;23;20436;-57
2022/10/03 08:52:59;;;;;;;2.60;1.67;;;;;;;13.10;100.00;96463.22;6175976;23;20047;-66
2022/10/03 08:55:28;;;;;;;2.33;1.80;;;;;;;13.05;100.00;96462.81;6176070;23;19997;-66
2022/10/03 08:58:18;;;;;;;4.22;1.85;;;;;;;13.07;100.00;96454.78;6176126;23;19997;-65
2022/10/03 09:01:04;;;;;;;4.03;1.65;;;;;;;13.18;100.00;96463.41;6175639;23;19997;-66
2022/10/03 09:03:38;;;;;;;1.90;1.73;;;;;;;13.31;100.00;96459.63;6175728;23;20005;-66
2022/10/03 09:06:09;;;;;;;2.72;1.77;;;;;;;13.44;100.00;96456.72;6175943;23;20007;-67
2022/10/03 09:08:44;;;;;;;1.48;1.48;;;;;;;13.58;100.00;96463.38;6175815;23;20079;-58
2022/10/03 09:11:31;;;;;;;2.30;1.30;;;;;;;13.64;100.00;96456.69;6175602;23;20009;-62
2022/10/03 09:14:14;;;;;;;1.30;1.30;;;;;;;13.69;100.00;96455.28;6175703;23;20005;-61
2022/10/03 09:17:10;;;;;;;1.55;1.30;;;;;;;13.72;100.00;96456.81;6175847;23;20066;-62
2022/10/03 09:20:17;;;;;;;1.42;1.42;;;;;;;13.86;100.00;96461.63;6175784;23;20400;-61
2022/10/03 09:23:01;;;;;;;;;;;;;;;13.99;100.00;96461.31;6175818;23;20520;-61
2022/10/03 09:25:35;;;;;;;1.90;1.52;;;;;;;14.20;100.00;96454.97;6175846;22;19954;-61
2022/10/03 09:28:19;;;;;;;1.13;1.13;;;;;;;14.41;100.00;96461.84;6175894;23;20059;-70
2022/10/03 09:30:56;;;;;;;1.23;1.20;;;;;;;14.75;100.00;96464.75;6175297;23;20008;-65
2022/10/03 09:33:38;;;;;;;4.63;1.42;;;;;;;14.87;99.24;96465.38;6175993;23;20005;-64
2022/10/03 09:36:26;;;;;;;1.90;1.42;;;;;;;14.99;97.20;96460.69;6175621;23;20005;-64
2022/10/03 09:39:25;;;;;;;1.20;1.20;;;;;;;15.20;96.39;96464.03;6175754;23;20005;-64
2022/10/03 09:42:19;;;;;;;1.08;1.08;;;;;;;15.44;93.45;96460.75;6108059;23;20008;-64
2022/10/03 09:45:13;;;;;;;3.05;1.20;;;;;;;15.61;88.85;96457.25;6175922;23;20001;-64
2022/10/03 09:47:57;;;;;;;3.38;1.35;;;;;;;15.69;90.68;96459.13;6175705;23;20005;-62
2022/10/03 09:50:52;;;;;;;0.98;0.98;;;;;;;15.71;90.43;96451.84;6175740;23;20009;-64
2022/10/03 09:53:31;;;;;;;1.00;1.00;;;;;;;15.63;91.07;96453.59;6175659;22;20013;-64
2022/10/03 09:56:15;;;;;;;1.63;1.10;;;;;;;15.68;91.10;96451.31;6174741;23;20005;-64
2022/10/03 09:59:17;;;;;;;1.30;1.20;;;;;;;15.72;90.04;96440.22;6176873;22;20005;-64
2022/10/03 10:02:29;;;;;;;1.30;1.30;;;;;;;15.94;86.73;96435.41;6176875;23;19997;-63
2022/10/03 10:05:26;;;;;;;1.75;1.52;;;;;;;16.06;86.77;96432.50;6130827;23;20040;-69
2022/10/03 10:08:13;;;;;;;1.17;1.17;;;;;;;16.13;88.17;96434.34;6177971;23;20592;-70
2022/10/03 10:11:06;;;;;;;1.00;1.00;;;;;;;16.17;84.86;96429.56;6177020;23;20002;-64
2022/10/03 10:14:10;;;;;;;0.85;0.82;;;;;;;16.27;87.69;96419.66;6177111;23;20001;-63
2022/10/03 10:17:25;;;;;;;2.10;1.10;;;;;;;16.27;85.19;96409.03;6177167;23;20070;-64
2022/10/03 10:20:18;;;;;;;1.25;1.15;;;;;;;16.14;84.68;96411.28;6176993;23;20020;-63
2022/10/03 10:22:58;;;;;;;1.02;1.02;;;;;;;16.10;86.91;96413.41;6176613;23;20000;-64
2022/10/03 10:25:58;;;;;;;1.10;1.08;;;;;;;16.21;86.90;96395.53;6177395;23;20510;-66
2022/10/03 10:28:52;;;;;;;0.93;0.93;;;;;;;16.27;84.87;96403.72;6177163;23;20028;-63
2022/10/03 10:31:20;;;;;;;1.33;1.20;;;;;;;16.25;84.00;96395.06;6178023;22;20467;-63
2022/10/03 10:34:14;;;;;;;1.95;1.20;;;;;;;16.50;85.23;96392.50;6176510;23;20004;-63
2022/10/03 10:37:08;;;;;;;1.08;1.08;;;;;;;16.48;84.56;96391.81;6176858;23;19994;-63
2022/10/03 10:39:57;;;;;;;3.47;1.17;;;;;;;16.55;85.01;96395.47;6176717;23;20001;-63
2022/10/03 10:43:17;;;;;;;1.00;1.00;;;;;;;16.55;81.08;96384.00;6176554;23;20009;-63
2022/10/03 10:46:03;;;;;;;1.35;1.25;;;;;;;16.58;84.50;96389.84;6178416;23;20032;-67
2022/10/03 10:48:47;;;;;;;2.95;1.30;;;;;;;16.76;83.58;96387.03;6177322;23;20001;-70
2022/10/03 10:51:35;;;;;;;1.55;1.42;;;;;;;16.96;82.27;96394.72;6176549;23;20001;-70
2022/10/03 10:54:38;;;;;;;1.20;1.15;;;;;;;16.97;77.55;96390.25;6151524;23;20001;-70
2022/10/03 10:57:23;;;;;;;1.35;1.25;;;;;;;17.08;79.81;96394.44;6176615;23;20057;-70
2022/10/03 11:00:04;;;;;;;1.50;1.10;;;;;;;17.10;81.85;96387.94;6176326;23;20068;-70
2022/10/03 11:02:45;;;;;;;2.13;1.40;;;;;;;17.37;80.78;96385.94;6176863;23;20004;-70
2022/10/03 11:05:35;;;;;;;2.72;1.33;;;;;;;17.64;81.30;96386.56;6176243;23;20502;-70
2022/10/03 11:08:38;;;;;;;1.05;1.00;;;;;;;17.79;76.88;96385.84;6176801;22;20027;-70
2022/10/03 11:11:46;;;;;;;1.40;1.10;;;;;;;17.98;77.50;96384.66;6151737;23;20035;-70
2022/10/03 11:14:30;;;;;;;2.30;1.30;;;;;;;18.09;76.71;96386.97;6176465;23;20011;-70
2022/10/03 11:17:26;;;;;;;1.13;1.13;;;;;;;18.21;76.86;96390.06;6177401;23;20001;-69
2022/10/03 11:20:39;;;;;;;3.65;1.08;;;;;;;18.28;73.75;96382.22;6177963;23;19997;-70
2022/10/03 11:23:41;;;;;;;1.15;1.10;;;;;;;18.02;74.55;96376.19;6177706;23;20031;-64
2022/10/03 11:26:44;;;;;;;1.95;0.95;;;;;;;18.21;72.71;96374.09;6177833;23;20068;-66
2022/10/03 11:29:27;;;;;;;4.32;1.15;;;;;;;18.31;70.80;96372.06;6178126;22;20398;-66
2022/10/03 11:32:28;;;;;;;1.17;1.10;;;;;;;18.03;72.49;96375.19;6177904;23;20013;-67
2022/10/03 11:35:14;;;;;;;0.95;0.95;;;;;;;18.12;71.89;96364.47;6177910;23;20079;-66
2022/10/03 11:37:49;;;;;;;0.90;0.90;;;;;;;18.11;73.99;96363.63;6177941;23;20013;-66
2022/10/03 11:40:37;;;;;;;1.08;1.08;;;;;;;18.11;73.71;96360.16;6177740;23;20070;-66
2022/10/03 11:43:33;;;;;;;1.40;1.20;;;;;;;18.09;71.97;96359.50;6178340;23;20074;-63
2022/10/03 11:46:36;;;;;;;2.58;1.20;;;;;;;18.16;74.82;96365.78;6177941;23;20005;-67
2022/10/03 11:49:21;;;;;;;1.10;1.10;;;;;;;17.97;73.97;96367.81;6177851;22;20005;-66
2022/10/03 11:52:01;;;;;;;0.95;0.95;;;;;;;17.88;76.31;96368.88;6178096;22;20039;-66
2022/10/03 11:54:36;;;;;;;2.42;1.00;;;;;;;17.95;76.19;96366.34;6178246;22;20005;-67
2022/10/03 11:57:30;;;;;;;3.60;1.30;;;;;;;18.02;75.39;96365.53;6178267;23;20004;-67
2022/10/03 12:00:14;;;;;;;1.23;1.23;;;;;;;18.16;75.71;96365.78;6177658;23;19993;-66
2022/10/03 12:02:59;;;;;;;4.00;1.30;;;;;;;18.30;76.19;96366.91;6177800;23;20454;-64
2022/10/03 12:05:36;;;;;;;1.38;1.10;;;;;;;18.52;72.12;96367.97;6177581;23;20046;-64
2022/10/03 12:11:24;;;;;;;1.10;1.10;;;;;;;18.31;70.04;96358.75;6177499;23;20012;-64
2022/10/03 12:14:17;;;;;;;1.02;0.98;;;;;;;18.30;73.13;96353.56;6177717;22;20035;-64
2022/10/03 12:17:09;;;;;;;1.20;1.10;;;;;;;18.43;69.67;96358.31;6177704;23;20074;-65
2022/10/03 12:19:42;;;;;;;1.40;1.30;;;;;;;18.19;73.86;96357.44;6177898;23;20056;-64
2022/10/03 12:22:15;;;;;;;1.10;1.00;;;;;;;18.40;73.27;96350.69;6177870;23;20001;-61
2022/10/03 12:24:43;;;;;;;1.33;1.20;;;;;;;18.49;74.75;96357.66;6177615;23;20008;-69
2022/10/03 12:27:09;;;;;;;1.45;1.00;;;;;;;18.71;73.18;96349.84;6177384;23;20084;-69
2022/10/03 12:29:39;;;;;;;4.03;0.88;;;;;;;18.80;70.53;96351.44;6177934;23;20032;-69
2022/10/03 12:32:25;;;;;;;1.40;0.82;;;;;;;18.69;67.84;96350.00;6177796;23;20032;-68
2022/10/03 12:35:03;;;;;;;1.00;1.00;;;;;;;18.63;69.78;96345.41;6151565;23;20076;-69
2022/10/03 12:37:53;;;;;;;5.90;3.22;;;;;;;18.76;70.16;96342.94;6177417;22;20037;-69
2022/10/03 12:40:21;;;;;;;1.25;1.15;;;;;;;18.83;70.07;96343.06;6177928;23;20070;-68
2022/10/03 12:43:15;;;;;;;2.28;0.98;;;;;;;19.08;68.84;96340.25;6177789;23;20066;-64
2022/10/03 12:45:49;;;;;;;2.20;0.80;;;;;;;18.98;68.80;96335.16;6177499;23;20088;-65
2022/10/03 12:48:23;;;;;;;1.25;0.90;;;;;;;19.07;68.58;96341.25;6178019;22;20485;-64
2022/10/03 12:51:21;;;;;;;1.10;1.02;;;;;;;19.00;68.19;96330.47;6177554;23;20001;-65
2022/10/03 12:54:11;;;;;;;1.38;0.98;;;;;;;19.19;66.60;96336.31;6177373;23;20504;-65
2022/10/03 12:56:57;;;;;;;0.80;0.80;;;;;;;18.99;66.86;96333.31;6177943;23;20347;-64
2022/10/03 12:59:41;;;;;;;2.20;1.00;;;;;;;18.75;70.22;96332.47;6177746;23;20001;-59
2022/10/03 13:02:37;;;;;;;0.88;0.88;;;;;;;19.08;67.30;96318.91;6177614;23;20040;-61
2022/10/03 13:05:24;;;;;;;1.00;1.00;;;;;;;19.30;65.79;96319.03;6177417;23;19997;-62
2022/10/03 13:07:53;;;;;;;1.42;1.00;;;;;;;19.45;67.22;96324.38;6177376;23;20037;-61